createdAt,value
2022-11-25T00:00:03.044Z,3.80
2022-11-25T00:02:44.299Z,3.75
2022-11-25T00:05:11.063Z,3.67
2022-11-25T00:07:38.399Z,3.38
2022-11-25T00:10:06.811Z,3.05
2022-11-25T00:12:33.472Z,3.80
2022-11-25T00:15:00.199Z,2.80
2022-11-25T00:17:26.805Z,2.95
2022-11-25T00:19:53.564Z,3.38
2022-11-25T00:22:20.159Z,3.40
2022-11-25T00:24:46.815Z,3.33
2022-11-25T00:27:13.484Z,3.45
2022-11-25T00:29:40.111Z,3.08
2022-11-25T00:32:06.865Z,3.13
2022-11-25T00:34:33.740Z,3.15
2022-11-25T00:37:00.496Z,3.80
2022-11-25T00:39:27.324Z,3.67
2022-11-25T00:42:12.603Z,3.25
2022-11-25T00:44:40.664Z,4.30
2022-11-25T00:47:14.043Z,3.25
2022-11-25T00:49:44.902Z,3.10
2022-11-25T00:52:15.498Z,3.20
2022-11-25T00:54:42.511Z,2.95
2022-11-25T00:57:09.216Z,2.80
2022-11-25T00:59:35.840Z,3.05
2022-11-25T01:02:02.576Z,2.83
2022-11-25T01:04:29.305Z,3.08
2022-11-25T01:06:56.784Z,2.83
2022-11-25T01:09:23.800Z,2.88
2022-11-25T01:11:51.584Z,3.25
2022-11-25T01:14:22.006Z,3.00
2022-11-25T01:16:48.818Z,3.00
2022-11-25T01:19:16.251Z,2.97
2022-11-25T01:21:43.173Z,3.70
2022-11-25T01:24:13.927Z,3.17
2022-11-25T01:26:41.288Z,3.10
2022-11-25T01:29:14.642Z,3.25
2022-11-25T01:31:42.179Z,3.50
2022-11-25T01:34:15.026Z,4.03
2022-11-25T01:36:42.488Z,3.65
2022-11-25T01:39:32.797Z,3.85
2022-11-25T01:42:00.771Z,2.75
2022-11-25T01:44:30.728Z,2.90
2022-11-25T01:47:23.365Z,3.58
2022-11-25T01:50:03.228Z,4.43
2022-11-25T01:52:36.320Z,4.38
2022-11-25T01:55:28.399Z,3.67
2022-11-25T01:58:02.033Z,3.10
2022-11-25T02:00:28.843Z,3.47
2022-11-25T02:02:57.350Z,2.92
2022-11-25T02:05:35.128Z,2.50
2022-11-25T02:08:02.866Z,3.72
2022-11-25T02:10:32.220Z,3.25
2022-11-25T02:12:59.863Z,3.25
2022-11-25T02:15:28.645Z,3.00
2022-11-25T02:17:56.086Z,2.83
2022-11-25T02:20:24.448Z,2.45
2022-11-25T02:23:06.185Z,2.25
2022-11-25T02:28:13.239Z,2.85
2022-11-25T02:30:40.775Z,3.58
2022-11-25T02:33:07.861Z,2.53
2022-11-25T02:35:41.520Z,2.97
2022-11-25T02:38:20.708Z,2.83
2022-11-25T02:40:59.783Z,2.55
2022-11-25T02:43:27.078Z,3.42
2022-11-25T02:46:07.954Z,3.47
2022-11-25T02:51:26.784Z,3.80
2022-11-25T02:53:53.928Z,2.95
2022-11-25T02:56:22.514Z,2.92
2022-11-25T02:58:49.223Z,3.15
2022-11-25T03:01:16.183Z,2.75
2022-11-25T03:03:43.179Z,2.78
2022-11-25T03:06:09.846Z,2.10
2022-11-25T03:08:37.945Z,2.67
2022-11-25T03:11:07.845Z,3.75
2022-11-25T03:13:34.630Z,2.78
2022-11-25T03:16:01.502Z,2.70
2022-11-25T03:18:28.365Z,3.08
2022-11-25T03:20:55.649Z,2.92
2022-11-25T03:23:24.415Z,2.38
2022-11-25T03:25:54.103Z,3.30
2022-11-25T03:28:20.876Z,2.55
2022-11-25T03:30:47.803Z,3.30
2022-11-25T03:33:14.612Z,3.10
2022-11-25T03:35:41.366Z,3.20
2022-11-25T03:38:08.028Z,3.33
2022-11-25T03:40:37.042Z,2.92
2022-11-25T03:43:04.977Z,3.45
2022-11-25T03:45:31.815Z,2.60
2022-11-25T03:48:00.915Z,3.30
2022-11-25T03:50:27.936Z,2.67
2022-11-25T03:52:54.576Z,3.35
2022-11-25T03:55:21.419Z,2.30
2022-11-25T03:57:50.044Z,3.47
2022-11-25T04:00:17.450Z,2.83
2022-11-25T04:02:54.204Z,3.33
2022-11-25T04:05:21.485Z,3.00
2022-11-25T04:07:51.231Z,2.70
2022-11-25T04:10:21.561Z,3.17
2022-11-25T04:12:48.273Z,2.65
2022-11-25T04:15:25.506Z,2.63
2022-11-25T04:17:56.569Z,3.10
2022-11-25T04:20:24.118Z,2.72
2022-11-25T04:22:57.175Z,3.20
2022-11-25T04:25:23.794Z,2.90
2022-11-25T04:27:52.024Z,3.72
2022-11-25T04:30:24.885Z,3.85
2022-11-25T04:32:52.628Z,3.15
2022-11-25T04:35:19.526Z,3.25
2022-11-25T04:37:50.716Z,2.55
2022-11-25T04:40:17.902Z,3.22
2022-11-25T04:42:49.609Z,2.83
2022-11-25T04:45:24.091Z,3.47
2022-11-25T04:47:53.062Z,3.42
2022-11-25T04:50:23.031Z,2.78
2022-11-25T04:52:56.184Z,2.45
2022-11-25T04:55:23.909Z,3.13
2022-11-25T04:57:51.064Z,3.00
2022-11-25T05:00:19.673Z,2.95
2022-11-25T05:02:46.973Z,2.80
2022-11-25T05:05:23.969Z,2.97
2022-11-25T05:07:50.860Z,3.55
2022-11-25T05:10:20.278Z,3.33
2022-11-25T05:12:48.834Z,2.42
2022-11-25T05:15:18.363Z,3.45
2022-11-25T05:17:47.145Z,2.63
2022-11-25T05:20:16.954Z,1.70
2022-11-25T05:22:43.574Z,2.08
2022-11-25T05:25:16.546Z,2.22
2022-11-25T05:27:55.795Z,2.72
2022-11-25T05:30:22.487Z,2.72
2022-11-25T05:32:49.461Z,2.38
2022-11-25T05:35:16.306Z,2.58
2022-11-25T05:37:44.873Z,2.38
2022-11-25T05:40:13.741Z,2.60
2022-11-25T05:43:03.394Z,1.85
2022-11-25T05:45:33.043Z,3.33
2022-11-25T05:47:59.733Z,3.28
2022-11-25T05:50:28.330Z,2.63
2022-11-25T05:53:11.396Z,2.92
2022-11-25T05:55:38.133Z,3.17
2022-11-25T05:58:11.159Z,3.25
2022-11-25T06:00:37.830Z,3.05
2022-11-25T06:05:36.781Z,2.90
2022-11-25T06:08:03.591Z,3.40
2022-11-25T06:10:30.760Z,3.80
2022-11-25T06:12:57.409Z,3.38
2022-11-25T06:15:24.372Z,3.47
2022-11-25T06:17:52.863Z,3.40
2022-11-25T06:20:24.276Z,3.05
2022-11-25T06:22:51.402Z,3.25
2022-11-25T06:25:24.384Z,3.00
2022-11-25T06:28:11.961Z,3.08
2022-11-25T06:30:38.617Z,4.03
2022-11-25T06:33:22.324Z,7.82
2022-11-25T06:35:49.905Z,5.13
2022-11-25T06:38:16.524Z,4.40
2022-11-25T06:40:43.164Z,4.07
2022-11-25T06:43:09.790Z,3.88
2022-11-25T06:45:36.407Z,3.35
2022-11-25T06:48:03.491Z,4.15
2022-11-25T06:50:30.156Z,4.10
2022-11-25T06:52:56.814Z,3.60
2022-11-25T06:55:23.414Z,4.18
2022-11-25T06:57:51.355Z,3.85
2022-11-25T07:00:20.337Z,3.58
2022-11-25T07:02:48.929Z,3.33
2022-11-25T07:05:15.830Z,3.13
2022-11-25T07:07:42.610Z,3.08
2022-11-25T07:10:09.659Z,3.75
2022-11-25T07:12:36.300Z,2.53
2022-11-25T07:15:03.328Z,2.97
2022-11-25T07:17:29.941Z,3.20
2022-11-25T07:19:56.667Z,2.92
2022-11-25T07:22:23.353Z,3.67
2022-11-25T07:24:49.952Z,2.85
2022-11-25T07:27:16.633Z,3.78
2022-11-25T07:30:03.103Z,3.40
2022-11-25T07:32:33.207Z,3.63
2022-11-25T07:34:59.837Z,3.13
2022-11-25T07:37:27.592Z,3.53
2022-11-25T07:39:54.253Z,4.25
2022-11-25T07:42:20.904Z,3.67
2022-11-25T07:44:49.226Z,4.10
2022-11-25T07:47:35.881Z,3.72
2022-11-25T07:50:02.976Z,3.72
2022-11-25T07:52:29.643Z,3.58
2022-11-25T07:54:56.235Z,3.95
2022-11-25T07:57:22.895Z,3.42
2022-11-25T07:59:49.482Z,3.72
2022-11-25T08:02:16.174Z,3.65
2022-11-25T08:04:42.929Z,3.90
2022-11-25T08:07:10.946Z,3.95
2022-11-25T08:09:37.981Z,4.60
2022-11-25T08:12:05.082Z,3.83
2022-11-25T08:14:32.035Z,4.15
2022-11-25T08:16:58.738Z,5.38
2022-11-25T08:19:31.113Z,5.22
2022-11-25T08:21:58.148Z,4.70
2022-11-25T08:24:24.763Z,4.07
2022-11-25T08:26:52.073Z,4.97
2022-11-25T08:29:19.391Z,4.95
2022-11-25T08:31:46.246Z,4.93
2022-11-25T08:34:22.802Z,4.53
2022-11-25T08:36:53.161Z,4.75
2022-11-25T08:39:51.742Z,6.53
2022-11-25T08:42:08.595Z,4.53
2022-11-25T08:44:36.119Z,4.55
2022-11-25T08:47:02.791Z,4.10
2022-11-25T08:49:31.124Z,5.85
2022-11-25T08:52:00.397Z,4.23
2022-11-25T08:54:27.035Z,4.60
2022-11-25T08:56:55.010Z,4.15
2022-11-25T08:59:22.806Z,3.67
2022-11-25T09:01:49.619Z,4.70
2022-11-25T09:04:16.303Z,3.28
2022-11-25T09:06:42.934Z,4.07
2022-11-25T09:09:09.690Z,3.97
2022-11-25T09:11:36.514Z,3.40
2022-11-25T09:14:03.340Z,3.88
2022-11-25T09:16:30.293Z,3.75
2022-11-25T09:18:57.039Z,3.45
2022-11-25T09:21:24.743Z,3.83
2022-11-25T09:23:52.654Z,3.70
2022-11-25T09:26:28.101Z,3.45
2022-11-25T09:28:55.429Z,4.22
2022-11-25T09:31:22.948Z,3.40
2022-11-25T09:33:49.652Z,3.40
2022-11-25T09:36:18.370Z,4.72
2022-11-25T09:38:45.525Z,3.42
2022-11-25T09:42:06.670Z,3.85
2022-11-25T09:45:22.241Z,3.50
2022-11-25T09:48:07.630Z,3.60
2022-11-25T09:51:11.888Z,4.47
2022-11-25T09:53:53.766Z,3.13
2022-11-25T09:59:05.440Z,3.45
2022-11-25T10:01:34.894Z,5.13
2022-11-25T10:04:04.145Z,3.53
2022-11-25T10:06:38.008Z,4.68
2022-11-25T10:09:17.897Z,2.90
2022-11-25T10:12:01.267Z,4.13
2022-11-25T10:14:46.455Z,3.13
2022-11-25T10:17:38.135Z,3.40
2022-11-25T10:20:16.939Z,3.75
2022-11-25T10:22:46.908Z,3.58
2022-11-25T10:25:18.523Z,2.97
2022-11-25T10:28:03.590Z,3.78
2022-11-25T10:30:44.047Z,3.67
2022-11-25T10:33:17.706Z,3.92
2022-11-25T10:36:13.201Z,3.50
2022-11-25T10:38:48.934Z,4.00
2022-11-25T10:41:21.700Z,3.80
2022-11-25T10:43:48.654Z,3.10
2022-11-25T10:46:23.179Z,3.47
2022-11-25T10:49:04.523Z,3.50
2022-11-25T10:51:46.114Z,3.70
2022-11-25T10:54:27.190Z,3.10
2022-11-25T10:57:03.263Z,3.42
2022-11-25T10:59:34.872Z,3.17
2022-11-25T11:02:19.322Z,3.30
2022-11-25T11:05:02.592Z,3.38
2022-11-25T11:07:35.017Z,3.58
2022-11-25T11:10:21.470Z,3.40
2022-11-25T11:13:02.684Z,2.65
2022-11-25T11:15:32.782Z,2.95
2022-11-25T11:18:14.469Z,2.80
2022-11-25T11:20:47.198Z,2.80
2022-11-25T11:23:14.591Z,3.15
2022-11-25T11:25:43.463Z,3.15
2022-11-25T11:28:35.973Z,2.70
2022-11-25T11:31:19.113Z,2.80
2022-11-25T11:33:48.710Z,3.30
2022-11-25T11:36:31.910Z,3.17
2022-11-25T11:39:19.315Z,2.90
2022-11-25T11:41:59.823Z,2.63
2022-11-25T11:44:57.358Z,3.05
2022-11-25T11:47:32.889Z,3.15
2022-11-25T11:50:25.083Z,2.97
2022-11-25T11:53:13.594Z,3.33
2022-11-25T11:56:33.085Z,2.97
2022-11-25T11:59:21.169Z,2.90
2022-11-25T12:02:19.859Z,2.55
2022-11-25T12:05:09.844Z,2.80
2022-11-25T12:08:16.774Z,3.08
2022-11-25T12:10:48.180Z,3.05
2022-11-25T12:16:10.578Z,2.95
2022-11-25T12:18:56.502Z,2.75
2022-11-25T12:21:49.796Z,4.40
2022-11-25T12:24:25.353Z,2.85
2022-11-25T12:27:06.653Z,3.17
2022-11-25T12:29:44.031Z,3.70
2022-11-25T12:32:29.616Z,2.90
2022-11-25T12:35:25.071Z,2.13
2022-11-25T12:38:09.156Z,2.97
2022-11-25T12:41:01.800Z,3.55
2022-11-25T12:43:40.707Z,2.92
2022-11-25T12:46:16.148Z,2.60
2022-11-25T12:48:43.687Z,3.20
2022-11-25T12:51:46.059Z,2.72
2022-11-25T12:54:44.805Z,3.45
2022-11-25T12:57:25.598Z,2.80
2022-11-25T13:03:27.227Z,2.75
2022-11-25T13:06:26.173Z,3.15
2022-11-25T13:09:35.914Z,2.17
2022-11-25T13:12:13.988Z,2.33
2022-11-25T13:15:13.158Z,2.05
2022-11-25T13:17:42.946Z,1.83
2022-11-25T13:20:28.038Z,2.17
2022-11-25T13:23:10.476Z,3.03
2022-11-25T13:25:39.778Z,3.47
2022-11-25T13:28:31.052Z,2.08
2022-11-25T13:31:16.217Z,2.40
2022-11-25T13:33:42.882Z,2.63
2022-11-25T13:36:49.598Z,2.83
2022-11-25T13:39:37.271Z,1.55
2022-11-25T13:42:25.777Z,2.55
2022-11-25T13:44:57.658Z,2.10
2022-11-25T13:50:19.011Z,2.63
2022-11-25T13:53:16.192Z,2.15
2022-11-25T13:55:42.909Z,2.15
2022-11-25T13:58:09.555Z,2.20
2022-11-25T14:00:36.157Z,2.30
2022-11-25T14:03:45.784Z,2.17
2022-11-25T14:06:28.166Z,1.80
2022-11-25T14:09:26.322Z,2.17
2022-11-25T14:12:30.859Z,2.00
2022-11-25T14:15:12.034Z,1.67
2022-11-25T14:17:47.899Z,2.47
2022-11-25T14:20:39.758Z,2.75
2022-11-25T14:23:50.549Z,2.30
2022-11-25T14:26:50.237Z,2.35
2022-11-25T14:29:25.888Z,2.20
2022-11-25T14:32:00.014Z,2.60
2022-11-25T14:34:39.957Z,2.53
2022-11-25T14:37:32.614Z,2.75
2022-11-25T14:40:06.477Z,3.28
2022-11-25T14:42:37.378Z,2.30
2022-11-25T14:45:29.843Z,1.93
2022-11-25T14:47:57.210Z,1.95
2022-11-25T14:50:34.753Z,2.45
2022-11-25T14:53:09.475Z,2.30
2022-11-25T14:55:37.849Z,2.05
2022-11-25T14:58:04.665Z,2.50
2022-11-25T15:00:31.360Z,2.72
2022-11-25T15:03:02.856Z,2.35
2022-11-25T15:05:32.365Z,2.42
2022-11-25T15:08:11.699Z,2.70
2022-11-25T15:10:40.438Z,2.88
2022-11-25T15:13:14.003Z,2.85
2022-11-25T15:15:44.076Z,2.83
2022-11-25T15:18:17.105Z,2.55
2022-11-25T15:20:50.905Z,2.70
2022-11-25T15:23:24.286Z,2.90
2022-11-25T15:25:54.436Z,2.90
2022-11-25T15:28:21.308Z,2.25
2022-11-25T15:30:59.543Z,2.50
2022-11-25T15:33:28.156Z,2.50
2022-11-25T15:35:55.516Z,3.53
2022-11-25T15:38:44.878Z,3.28
2022-11-25T15:41:25.656Z,2.42
2022-11-25T15:43:55.118Z,2.83
2022-11-25T15:46:23.693Z,3.10
2022-11-25T15:48:52.941Z,3.00
2022-11-25T15:51:43.994Z,4.65
2022-11-25T15:54:17.452Z,3.30
2022-11-25T15:56:51.022Z,3.40
2022-11-25T15:59:47.785Z,3.15
2022-11-25T16:02:49.846Z,3.25
2022-11-25T16:07:52.638Z,4.00
2022-11-25T16:10:34.634Z,3.28
2022-11-25T16:13:23.400Z,4.35
2022-11-25T16:15:56.191Z,3.72
2022-11-25T16:18:43.336Z,3.58
2022-11-25T16:21:18.224Z,2.80
2022-11-25T16:23:52.177Z,3.63
2022-11-25T16:26:31.754Z,4.35
2022-11-25T16:29:01.163Z,3.65
2022-11-25T16:31:28.565Z,4.05
2022-11-25T16:33:59.193Z,4.38
2022-11-25T16:36:25.932Z,3.80
2022-11-25T16:38:54.322Z,4.53
2022-11-25T16:41:24.940Z,4.00
2022-11-25T16:43:51.894Z,3.85
2022-11-25T16:46:20.265Z,3.63
2022-11-25T16:48:47.775Z,3.90
2022-11-25T16:51:19.953Z,4.18
2022-11-25T16:53:47.938Z,4.30
2022-11-25T16:56:28.065Z,4.03
2022-11-25T16:58:55.074Z,3.85
2022-11-25T17:01:25.492Z,6.35
2022-11-25T17:03:52.658Z,5.75
2022-11-25T17:06:22.838Z,4.72
2022-11-25T17:08:50.172Z,5.53
2022-11-25T17:11:28.074Z,5.00
2022-11-25T17:13:55.992Z,4.30
2022-11-25T17:16:25.623Z,4.28
2022-11-25T17:18:54.596Z,4.22
2022-11-25T17:21:26.747Z,5.10
2022-11-25T17:24:02.647Z,4.25
2022-11-25T17:26:41.754Z,4.40
2022-11-25T17:29:14.340Z,4.50
2022-11-25T17:31:41.510Z,4.88
2022-11-25T17:34:16.129Z,4.03
2022-11-25T17:36:44.741Z,3.53
2022-11-25T17:39:12.673Z,4.72
2022-11-25T17:41:51.322Z,4.35
2022-11-25T17:44:25.382Z,3.92
2022-11-25T17:46:53.651Z,5.53
2022-11-25T17:49:20.919Z,4.40
2022-11-25T17:51:47.757Z,5.68
2022-11-25T17:54:14.944Z,4.82
2022-11-25T17:56:46.576Z,4.63
2022-11-25T17:59:23.453Z,4.40
2022-11-25T18:01:50.209Z,4.72
2022-11-25T18:04:21.707Z,5.00
2022-11-25T18:06:48.819Z,4.13
2022-11-25T18:09:17.194Z,4.57
2022-11-25T18:11:48.601Z,4.72
2022-11-25T18:14:23.333Z,4.43
2022-11-25T18:16:50.235Z,5.40
2022-11-25T18:19:17.102Z,5.28
2022-11-25T18:21:43.806Z,5.68
2022-11-25T18:24:10.545Z,4.45
2022-11-25T18:26:49.605Z,6.00
2022-11-25T18:29:24.361Z,6.03
2022-11-25T18:31:53.569Z,5.22
2022-11-25T18:34:20.322Z,5.80
2022-11-25T18:36:47.220Z,5.80
2022-11-25T18:39:14.196Z,5.78
2022-11-25T18:41:42.807Z,5.50
2022-11-25T18:44:25.900Z,6.60
2022-11-25T18:46:53.484Z,6.72
2022-11-25T18:49:20.590Z,6.43
2022-11-25T18:51:47.477Z,6.00
2022-11-25T18:54:14.252Z,5.40
2022-11-25T18:56:41.578Z,5.93
2022-11-25T18:59:25.859Z,6.70
2022-11-25T19:01:52.632Z,5.60
2022-11-25T19:04:19.412Z,6.13
2022-11-25T19:06:46.102Z,6.07
2022-11-25T19:09:12.898Z,6.65
2022-11-25T19:11:43.198Z,6.07
2022-11-25T19:14:35.972Z,5.82
2022-11-25T19:17:07.188Z,6.32
2022-11-25T19:19:34.012Z,6.43
2022-11-25T19:22:01.497Z,6.25
2022-11-25T19:24:29.002Z,6.85
2022-11-25T19:26:57.326Z,6.97
2022-11-25T19:29:32.332Z,6.70
2022-11-25T19:32:01.821Z,6.65
2022-11-25T19:34:43.835Z,6.80
2022-11-25T19:37:20.265Z,6.90
2022-11-25T19:39:50.033Z,6.88
2022-11-25T19:42:17.081Z,7.95
2022-11-25T19:44:45.250Z,6.28
2022-11-25T19:47:16.899Z,7.80
2022-11-25T19:52:20.215Z,8.20
2022-11-25T19:54:47.057Z,8.73
2022-11-25T19:57:19.597Z,8.15
2022-11-25T19:59:46.707Z,6.93
2022-11-25T20:02:20.423Z,8.45
2022-11-25T20:04:49.783Z,8.10
2022-11-25T20:07:18.915Z,8.60
2022-11-25T20:09:45.912Z,8.30
2022-11-25T20:12:22.551Z,8.27
2022-11-25T20:14:50.228Z,8.88
2022-11-25T20:17:34.697Z,8.27
2022-11-25T20:20:16.416Z,7.93
2022-11-25T20:22:51.985Z,7.97
2022-11-25T20:25:19.334Z,8.20
2022-11-25T20:27:46.153Z,7.45
2022-11-25T20:30:16.679Z,8.43
2022-11-25T20:32:44.093Z,8.10
2022-11-25T20:35:11.274Z,7.90
2022-11-25T20:37:59.220Z,8.80
2022-11-25T20:40:38.083Z,8.30
2022-11-25T20:43:05.594Z,8.20
2022-11-25T20:45:32.342Z,8.13
2022-11-25T20:47:59.217Z,8.38
2022-11-25T20:50:29.985Z,8.85
2022-11-25T20:52:57.048Z,8.02
2022-11-25T20:55:25.625Z,7.03
2022-11-25T20:57:52.741Z,8.70
2022-11-25T21:00:24.295Z,7.68
2022-11-25T21:02:52.733Z,9.77
2022-11-25T21:05:20.370Z,7.82
2022-11-25T21:07:49.458Z,9.13
2022-11-25T21:10:27.136Z,9.15
2022-11-25T21:12:54.744Z,8.52
2022-11-25T21:15:24.340Z,7.78
2022-11-25T21:17:51.833Z,8.32
2022-11-25T21:20:20.036Z,7.72
2022-11-25T21:22:50.472Z,7.90
2022-11-25T21:25:19.474Z,8.43
2022-11-25T21:27:47.782Z,7.72
2022-11-25T21:30:20.724Z,8.80
2022-11-25T21:32:47.958Z,7.93
2022-11-25T21:35:15.184Z,7.90
2022-11-25T21:37:44.380Z,9.90
2022-11-25T21:40:27.136Z,8.07
2022-11-25T21:42:54.949Z,8.35
2022-11-25T21:45:21.884Z,9.20
2022-11-25T21:47:48.644Z,8.35
2022-11-25T21:50:17.201Z,9.13
2022-11-25T21:52:44.123Z,8.95
2022-11-25T21:55:15.976Z,9.27
2022-11-25T22:00:24.621Z,9.20
2022-11-25T22:02:52.440Z,9.88
2022-11-25T22:05:21.499Z,8.73
2022-11-25T22:07:48.548Z,9.85
2022-11-25T22:10:16.772Z,9.25
2022-11-25T22:12:45.668Z,9.25
2022-11-25T22:15:18.837Z,9.70
2022-11-25T22:17:46.033Z,10.18
2022-11-25T22:20:29.375Z,9.88
2022-11-25T22:22:56.707Z,10.30
2022-11-25T22:25:26.726Z,9.95
2022-11-25T22:27:53.693Z,10.90
2022-11-25T22:30:22.115Z,10.07
2022-11-25T22:32:57.213Z,10.00
2022-11-25T22:35:23.930Z,8.75
2022-11-25T22:37:55.156Z,9.82
2022-11-25T22:42:51.838Z,9.68
2022-11-25T22:45:30.254Z,9.57
2022-11-25T22:47:58.270Z,10.02
2022-11-25T22:50:30.718Z,10.93
2022-11-25T22:52:58.380Z,10.00
2022-11-25T22:55:32.959Z,9.23
2022-11-25T22:58:01.288Z,9.48
2022-11-25T23:00:35.004Z,10.23
2022-11-25T23:03:04.673Z,10.20
2022-11-25T23:05:34.276Z,10.32
2022-11-25T23:08:14.036Z,10.85
2022-11-25T23:10:41.685Z,11.18
2022-11-25T23:13:08.843Z,11.25
2022-11-25T23:15:36.148Z,11.02
2022-11-25T23:18:05.157Z,11.07
2022-11-25T23:20:33.537Z,11.48
2022-11-25T23:23:10.986Z,11.55
2022-11-25T23:25:37.950Z,10.75
2022-11-25T23:28:04.746Z,10.93
2022-11-25T23:30:31.825Z,11.85
2022-11-25T23:32:59.119Z,10.68
2022-11-25T23:35:38.941Z,10.93
2022-11-25T23:38:11.955Z,12.90
2022-11-25T23:40:39.178Z,11.63
2022-11-25T23:43:12.399Z,11.13
2022-11-25T23:45:52.478Z,12.27
2022-11-25T23:48:21.434Z,12.55
2022-11-25T23:50:49.035Z,12.27
2022-11-25T23:53:30.990Z,11.02
2022-11-25T23:55:57.978Z,12.05
2022-11-25T23:58:24.709Z,11.63
